createdAt,value
2018-09-08T00:01:31.896Z,94.80
2018-09-08T00:03:59.809Z,94.90
2018-09-08T00:06:33.165Z,95.10
2018-09-08T00:09:02.103Z,94.90
2018-09-08T00:11:30.132Z,94.00
2018-09-08T00:13:57.997Z,94.80
2018-09-08T00:16:31.538Z,95.10
2018-09-08T00:19:04.950Z,95.20
2018-09-08T00:21:38.398Z,95.00
2018-09-08T00:24:11.915Z,94.60
2018-09-08T00:26:39.277Z,95.20
2018-09-08T00:29:26.238Z,94.50
2018-09-08T00:31:54.750Z,93.60
2018-09-08T00:34:22.646Z,93.90
2018-09-08T00:36:50.581Z,92.90
2018-09-08T00:39:18.492Z,92.60
2018-09-08T00:41:46.416Z,92.20
2018-09-08T00:44:14.302Z,93.80
2018-09-08T00:46:42.232Z,95.70
2018-09-08T00:49:10.216Z,95.10
2018-09-08T00:51:38.125Z,94.70
2018-09-08T00:54:06.074Z,95.00
2018-09-08T00:56:33.981Z,94.80
2018-09-08T00:59:03.910Z,94.60
2018-09-08T01:01:33.133Z,94.30
2018-09-08T01:04:01.084Z,93.50
2018-09-08T01:06:29.017Z,93.30
2018-09-08T01:08:56.954Z,93.20
2018-09-08T01:11:25.161Z,93.60
2018-09-08T01:13:53.346Z,94.90
2018-09-08T01:16:21.762Z,95.20
2018-09-08T01:18:49.678Z,95.50
2018-09-08T01:21:17.672Z,94.30
2018-09-08T01:23:49.643Z,93.80
2018-09-08T01:26:18.206Z,93.60
2018-09-08T01:28:46.188Z,93.80
2018-09-08T01:31:14.146Z,93.70
2018-09-08T01:33:42.106Z,94.00
2018-09-08T01:36:10.074Z,94.10
2018-09-08T01:38:38.011Z,94.70
2018-09-08T01:41:05.941Z,94.70
2018-09-08T01:43:33.949Z,95.40
2018-09-08T01:46:01.965Z,94.60
2018-09-08T01:48:29.877Z,94.30
2018-09-08T01:50:57.844Z,93.20
2018-09-08T01:53:25.746Z,93.00
2018-09-08T01:55:53.736Z,93.40
2018-09-08T01:58:21.697Z,94.30
2018-09-08T02:00:49.691Z,94.40
2018-09-08T02:03:17.664Z,95.40
2018-09-08T02:05:45.660Z,95.90
2018-09-08T02:08:13.558Z,96.80
2018-09-08T02:10:41.495Z,96.90
2018-09-08T02:13:09.723Z,96.40
2018-09-08T02:15:37.665Z,96.40
2018-09-08T02:18:05.671Z,95.40
2018-09-08T02:20:33.705Z,95.00
2018-09-08T02:23:01.641Z,94.90
2018-09-08T02:25:29.709Z,94.70
2018-09-08T02:27:57.701Z,94.10
2018-09-08T02:30:25.677Z,93.60
2018-09-08T02:32:53.637Z,93.80
2018-09-08T02:35:21.548Z,93.80
2018-09-08T02:37:49.494Z,93.70
2018-09-08T02:40:17.432Z,93.20
2018-09-08T02:42:45.369Z,92.40
2018-09-08T02:45:13.313Z,92.20
2018-09-08T02:47:41.229Z,93.10
2018-09-08T02:50:20.506Z,93.20
2018-09-08T02:52:47.171Z,93.20
2018-09-08T02:55:13.922Z,93.40
2018-09-08T02:57:40.622Z,93.70
2018-09-08T03:00:07.310Z,93.50
2018-09-08T03:02:33.966Z,93.70
2018-09-08T03:05:00.665Z,93.60
2018-09-08T03:07:27.377Z,93.30
2018-09-08T03:09:54.021Z,93.40
2018-09-08T03:12:20.679Z,93.30
2018-09-08T03:14:47.346Z,93.20
2018-09-08T03:17:14.024Z,93.00
2018-09-08T03:19:40.729Z,92.90
2018-09-08T03:22:07.422Z,93.10
2018-09-08T03:24:34.095Z,93.20
2018-09-08T03:27:00.765Z,93.60
2018-09-08T03:29:27.498Z,93.40
2018-09-08T03:31:54.149Z,93.40
2018-09-08T03:34:20.824Z,94.10
2018-09-08T03:36:47.481Z,94.70
2018-09-08T03:39:14.186Z,94.80
2018-09-08T03:41:40.805Z,95.20
2018-09-08T03:44:07.532Z,95.50
2018-09-08T03:46:34.233Z,95.60
2018-09-08T03:49:00.961Z,95.10
2018-09-08T03:51:27.642Z,94.10
2018-09-08T03:53:54.354Z,94.00
2018-09-08T03:56:21.028Z,93.30
2018-09-08T03:58:47.692Z,93.40
2018-09-08T04:01:14.368Z,93.40
2018-09-08T04:03:42.234Z,93.70
2018-09-08T04:06:10.182Z,93.40
2018-09-08T04:08:38.177Z,92.60
2018-09-08T04:11:06.158Z,92.30
2018-09-08T04:13:34.065Z,91.90
2018-09-08T04:16:01.988Z,91.40
2018-09-08T04:18:29.916Z,91.80
2018-09-08T04:20:57.836Z,92.80
2018-09-08T04:23:25.750Z,93.00
2018-09-08T04:25:53.666Z,92.90
2018-09-08T04:28:21.585Z,92.60
2018-09-08T04:30:49.525Z,92.40
2018-09-08T04:33:17.458Z,92.20
2018-09-08T04:35:45.384Z,92.90
2018-09-08T04:38:13.337Z,93.40
2018-09-08T04:40:41.285Z,93.10
2018-09-08T04:43:09.238Z,92.70
2018-09-08T04:45:37.181Z,93.00
2018-09-08T04:48:05.113Z,92.20
2018-09-08T04:50:33.053Z,92.00
2018-09-08T04:53:00.985Z,91.50
2018-09-08T04:55:28.929Z,91.40
2018-09-08T04:57:56.821Z,91.50
2018-09-08T05:00:24.729Z,91.50
2018-09-08T05:02:52.647Z,92.10
2018-09-08T05:05:20.540Z,91.90
2018-09-08T05:07:48.562Z,92.40
2018-09-08T05:10:16.476Z,92.70
2018-09-08T05:12:44.430Z,92.30
2018-09-08T05:15:12.332Z,92.80
2018-09-08T05:17:40.265Z,92.80
2018-09-08T05:20:08.475Z,92.60
2018-09-08T05:22:36.520Z,92.40
2018-09-08T05:25:04.553Z,93.00
2018-09-08T05:27:32.505Z,92.20
2018-09-08T05:30:00.464Z,92.40
2018-09-08T05:32:28.432Z,92.40
2018-09-08T05:34:56.620Z,92.20
2018-09-08T05:37:24.627Z,92.80
2018-09-08T05:39:52.525Z,92.70
2018-09-08T05:42:20.825Z,93.20
2018-09-08T05:44:49.203Z,93.70
2018-09-08T05:47:17.407Z,93.20
2018-09-08T05:49:45.357Z,92.70
2018-09-08T05:52:13.304Z,92.30
2018-09-08T05:54:41.216Z,93.20
2018-09-08T05:57:09.159Z,94.80
2018-09-08T05:59:37.093Z,93.90
2018-09-08T06:02:05.069Z,93.90
2018-09-08T06:04:32.969Z,94.00
2018-09-08T06:07:01.101Z,94.00
2018-09-08T06:09:29.315Z,93.60
2018-09-08T06:11:57.398Z,94.10
2018-09-08T06:14:25.613Z,94.70
2018-09-08T06:16:53.845Z,95.20
2018-09-08T06:19:21.831Z,96.20
2018-09-08T06:21:53.260Z,96.60
2018-09-08T06:24:21.528Z,95.50
2018-09-08T06:26:49.803Z,96.30
2018-09-08T06:29:18.220Z,96.40
2018-09-08T06:31:46.565Z,96.30
2018-09-08T06:34:14.707Z,95.60
2018-09-08T06:36:42.733Z,95.50
2018-09-08T06:39:13.057Z,95.80
2018-09-08T06:41:41.221Z,96.30
2018-09-08T06:44:09.178Z,95.70
2018-09-08T06:46:37.144Z,96.00
2018-09-08T06:49:05.739Z,96.20
2018-09-08T06:51:34.339Z,96.50
2018-09-08T06:54:02.457Z,96.10
2018-09-08T06:56:30.453Z,95.90
2018-09-08T06:58:58.560Z,95.70
2018-09-08T07:01:26.692Z,95.90
2018-09-08T07:03:54.657Z,95.50
2018-09-08T07:06:22.593Z,95.40
2018-09-08T07:08:50.546Z,94.90
2018-09-08T07:11:18.504Z,94.40
2018-09-08T07:13:46.471Z,93.90
2018-09-08T07:16:14.434Z,93.50
2018-09-08T07:18:42.371Z,93.10
2018-09-08T07:21:10.353Z,93.40
2018-09-08T07:23:38.331Z,93.00
2018-09-08T07:26:06.385Z,93.30
2018-09-08T07:28:34.396Z,92.90
2018-09-08T07:31:02.404Z,92.70
2018-09-08T07:33:30.647Z,92.40
2018-09-08T07:35:58.610Z,92.10
2018-09-08T07:38:26.494Z,91.90
2018-09-08T07:40:54.460Z,92.80
2018-09-08T07:43:22.389Z,92.40
2018-09-08T07:45:50.546Z,92.10
2018-09-08T07:48:18.469Z,92.20
2018-09-08T07:50:46.410Z,92.30
2018-09-08T07:53:14.343Z,92.00
2018-09-08T07:55:42.439Z,92.00
2018-09-08T07:58:10.380Z,92.00
2018-09-08T08:00:38.377Z,91.90
2018-09-08T08:03:06.332Z,91.60
2018-09-08T08:05:34.368Z,91.20
2018-09-08T08:08:02.408Z,90.90
2018-09-08T08:10:30.348Z,90.00
2018-09-08T08:12:58.329Z,90.60
2018-09-08T08:15:26.284Z,90.90
2018-09-08T08:17:54.193Z,90.60
2018-09-08T08:20:22.211Z,90.30
2018-09-08T08:22:50.428Z,90.10
2018-09-08T08:25:18.430Z,90.10
2018-09-08T08:27:46.422Z,90.60
2018-09-08T08:30:14.444Z,90.70
2018-09-08T08:32:42.472Z,89.90
2018-09-08T08:35:11.127Z,89.50
2018-09-08T08:37:40.152Z,90.00
2018-09-08T08:40:08.198Z,90.00
2018-09-08T08:42:36.705Z,88.00
2018-09-08T08:45:04.740Z,85.80
2018-09-08T08:47:32.953Z,85.30
2018-09-08T08:50:12.170Z,86.10
2018-09-08T08:52:51.221Z,86.00
2018-09-08T08:55:19.750Z,87.60
2018-09-08T08:57:47.754Z,86.10
2018-09-08T09:00:15.799Z,84.50
2018-09-08T09:07:31.503Z,81.30
2018-09-08T09:09:59.481Z,83.10
2018-09-08T09:12:28.609Z,81.00
2018-09-08T09:14:56.586Z,80.10
2018-09-08T09:17:24.528Z,80.60
2018-09-08T09:21:02.301Z,78.60
2018-09-08T09:23:41.410Z,79.00
2018-09-08T09:26:09.599Z,77.70
2018-09-08T09:28:37.801Z,77.40
2018-09-08T09:31:06.401Z,80.00
2018-09-08T09:33:34.541Z,77.40
2018-09-08T09:36:02.556Z,77.50
2018-09-08T09:38:30.519Z,74.50
2018-09-08T09:40:59.432Z,75.20
2018-09-08T09:43:27.501Z,78.00
2018-09-08T09:45:55.477Z,75.90
2018-09-08T09:48:23.440Z,79.10
2018-09-08T09:50:51.453Z,78.60
2018-09-08T09:53:19.465Z,75.00
2018-09-08T09:55:47.487Z,73.50
2018-09-08T09:58:15.472Z,73.40
2018-09-08T10:00:48.794Z,71.90
2018-09-08T10:03:17.842Z,72.40
2018-09-08T10:05:45.818Z,70.10
2018-09-08T10:08:13.853Z,69.80
2018-09-08T10:10:41.898Z,68.60
2018-09-08T10:13:09.873Z,67.10
2018-09-08T10:15:37.975Z,67.60
2018-09-08T10:18:06.127Z,68.80
2018-09-08T10:20:34.171Z,65.40
2018-09-08T10:23:02.244Z,65.70
2018-09-08T10:25:31.445Z,66.30
2018-09-08T10:27:59.470Z,63.20
2018-09-08T10:30:28.023Z,65.30
2018-09-08T10:32:56.829Z,63.90
2018-09-08T10:35:24.839Z,65.90
2018-09-08T10:37:52.908Z,68.40
2018-09-08T10:40:21.826Z,67.40
2018-09-08T10:42:49.981Z,66.20
2018-09-08T10:45:19.005Z,66.90
2018-09-08T10:47:47.461Z,67.10
2018-09-08T10:50:15.525Z,64.60
2018-09-08T10:52:45.252Z,64.30
2018-09-08T10:55:13.322Z,64.70
2018-09-08T10:57:41.220Z,64.00
2018-09-08T11:00:10.828Z,62.40
2018-09-08T11:02:39.126Z,61.20
2018-09-08T11:05:07.599Z,61.90
2018-09-08T11:07:35.540Z,61.20
2018-09-08T11:10:03.685Z,62.60
2018-09-08T11:12:33.203Z,64.40
2018-09-08T11:15:01.242Z,65.90
2018-09-08T11:17:29.212Z,64.60
2018-09-08T11:19:57.314Z,65.30
2018-09-08T11:22:25.369Z,65.90
2018-09-08T11:24:54.153Z,64.00
2018-09-08T11:27:22.217Z,63.60
2018-09-08T11:29:50.173Z,64.00
2018-09-08T11:32:18.376Z,59.60
2018-09-08T11:34:46.288Z,62.90
2018-09-08T11:37:14.289Z,60.30
2018-09-08T11:39:42.237Z,59.70
2018-09-08T11:42:10.188Z,60.40
2018-09-08T11:44:38.190Z,58.40
2018-09-08T11:47:06.174Z,59.20
2018-09-08T11:49:34.265Z,58.90
2018-09-08T11:52:02.199Z,59.40
2018-09-08T11:54:30.163Z,58.50
2018-09-08T11:56:58.125Z,57.10
2018-09-08T11:59:26.159Z,57.50
2018-09-08T12:01:54.069Z,57.60
2018-09-08T12:04:22.028Z,58.90
2018-09-08T12:06:51.017Z,58.60
2018-09-08T12:09:19.004Z,57.30
2018-09-08T12:11:46.990Z,58.50
2018-09-08T12:14:14.940Z,57.70
2018-09-08T12:16:42.918Z,57.90
2018-09-08T12:19:10.991Z,59.70
2018-09-08T12:21:39.671Z,56.30
2018-09-08T12:24:08.441Z,58.40
2018-09-08T12:26:36.439Z,55.80
2018-09-08T12:29:04.548Z,56.50
2018-09-08T12:31:32.523Z,57.60
2018-09-08T12:34:00.548Z,56.60
2018-09-08T12:36:29.939Z,56.50
2018-09-08T12:38:58.012Z,58.80
2018-09-08T12:41:26.703Z,57.90
2018-09-08T12:43:54.666Z,55.30
2018-09-08T12:46:22.610Z,55.70
2018-09-08T12:48:50.568Z,57.00
2018-09-08T12:51:18.553Z,56.60
2018-09-08T12:53:46.546Z,55.70
2018-09-08T12:56:14.517Z,54.40
2018-09-08T12:58:43.338Z,57.00
2018-09-08T13:01:11.350Z,56.10
2018-09-08T13:03:39.273Z,56.10
2018-09-08T13:06:07.300Z,53.90
2018-09-08T13:08:35.336Z,53.80
2018-09-08T13:11:03.930Z,53.70
2018-09-08T13:13:31.893Z,53.80
2018-09-08T13:15:59.869Z,53.80
2018-09-08T13:18:27.922Z,53.90
2018-09-08T13:20:56.029Z,53.70
2018-09-08T13:23:24.477Z,52.80
2018-09-08T13:25:52.432Z,53.20
2018-09-08T13:28:21.329Z,53.60
2018-09-08T13:30:49.309Z,54.80
2018-09-08T13:33:17.341Z,52.50
2018-09-08T13:35:45.231Z,51.80
2018-09-08T13:38:13.207Z,52.00
2018-09-08T13:40:41.126Z,50.90
2018-09-08T13:43:09.596Z,49.60
2018-09-08T13:45:37.601Z,50.40
2018-09-08T13:48:05.593Z,51.00
2018-09-08T13:50:33.585Z,48.30
2018-09-08T13:53:01.566Z,47.40
2018-09-08T13:55:29.490Z,48.40
2018-09-08T13:57:57.486Z,47.80
2018-09-08T14:00:26.034Z,46.00
2018-09-08T14:02:53.939Z,45.00
2018-09-08T14:05:21.950Z,45.80
2018-09-08T14:07:52.457Z,45.80
2018-09-08T14:10:20.420Z,42.80
2018-09-08T14:12:48.509Z,43.30
2018-09-08T14:15:16.516Z,43.80
2018-09-08T14:17:44.578Z,44.00
2018-09-08T14:20:12.630Z,43.30
2018-09-08T14:22:41.478Z,45.10
2018-09-08T14:25:09.447Z,43.60
2018-09-08T14:27:37.393Z,43.00
2018-09-08T14:30:06.221Z,41.20
2018-09-08T14:32:34.980Z,43.10
2018-09-08T14:35:03.012Z,41.70
2018-09-08T14:37:31.333Z,42.70
2018-09-08T14:39:59.281Z,41.90
2018-09-08T14:42:27.255Z,41.80
2018-09-08T14:44:55.330Z,41.10
2018-09-08T14:47:23.634Z,43.10
2018-09-08T14:49:51.570Z,41.40
2018-09-08T14:52:19.453Z,40.30
2018-09-08T14:54:47.518Z,41.00
2018-09-08T14:57:15.440Z,41.60
2018-09-08T15:02:11.213Z,38.60
2018-09-08T15:04:39.290Z,39.90
2018-09-08T15:07:07.197Z,39.40
2018-09-08T15:09:35.247Z,38.40
2018-09-08T15:12:03.259Z,39.10
2018-09-08T15:14:31.194Z,38.60
2018-09-08T15:16:59.189Z,38.20
2018-09-08T15:19:27.195Z,38.30
2018-09-08T15:21:55.097Z,39.10
2018-09-08T15:24:23.075Z,37.50
2018-09-08T15:26:51.028Z,38.60
2018-09-08T15:29:18.992Z,39.20
2018-09-08T15:31:46.906Z,39.10
2018-09-08T15:34:14.853Z,39.00
2018-09-08T15:39:10.532Z,36.50
2018-09-08T15:41:38.513Z,37.90
2018-09-08T15:44:06.450Z,39.30
2018-09-08T15:46:34.370Z,41.60
2018-09-08T15:49:02.316Z,40.80
2018-09-08T15:51:30.357Z,39.60
2018-09-08T15:53:58.289Z,39.70
2018-09-08T15:56:26.271Z,41.10
2018-09-08T15:58:54.385Z,39.90
2018-09-08T16:01:22.342Z,41.60
2018-09-08T16:03:50.233Z,41.60
2018-09-08T16:06:18.269Z,40.90
2018-09-08T16:08:46.746Z,39.90
2018-09-08T16:11:14.723Z,39.50
2018-09-08T16:13:42.717Z,40.70
2018-09-08T16:16:10.658Z,40.30
2018-09-08T16:18:38.654Z,40.50
2018-09-08T16:21:06.603Z,39.70
2018-09-08T16:23:34.501Z,39.70
2018-09-08T16:26:02.449Z,38.20
2018-09-08T16:28:30.467Z,39.10
2018-09-08T16:30:58.521Z,39.50
2018-09-08T16:33:26.455Z,39.80
2018-09-08T16:35:54.437Z,37.70
2018-09-08T16:38:22.358Z,39.80
2018-09-08T16:40:50.318Z,38.10
2018-09-08T16:43:18.217Z,38.20
2018-09-08T16:45:46.161Z,39.20
2018-09-08T16:48:14.145Z,41.60
2018-09-08T16:50:42.114Z,41.30
2018-09-08T16:53:10.061Z,40.30
2018-09-08T16:55:38.044Z,41.00
2018-09-08T16:58:06.086Z,42.30
2018-09-08T17:00:33.981Z,44.40
2018-09-08T17:03:01.977Z,44.60
2018-09-08T17:05:30.275Z,45.20
2018-09-08T17:07:58.207Z,45.30
2018-09-08T17:10:26.265Z,45.70
2018-09-08T17:12:55.008Z,45.80
2018-09-08T17:15:22.918Z,45.70
2018-09-08T17:17:51.411Z,46.50
2018-09-08T17:20:19.449Z,47.70
2018-09-08T17:22:48.471Z,47.90
2018-09-08T17:25:16.558Z,48.80
2018-09-08T17:27:44.616Z,50.20
2018-09-08T17:30:12.577Z,50.50
2018-09-08T17:32:40.561Z,51.20
2018-09-08T17:35:08.497Z,51.60
2018-09-08T17:37:36.397Z,51.70
2018-09-08T17:40:04.777Z,52.40
2018-09-08T17:42:32.847Z,52.80
2018-09-08T17:45:00.858Z,53.50
2018-09-08T17:47:28.907Z,54.40
2018-09-08T17:49:56.852Z,55.60
2018-09-08T17:52:24.802Z,56.40
2018-09-08T17:54:52.745Z,57.40
2018-09-08T17:57:20.733Z,58.40
2018-09-08T17:59:48.766Z,58.30
2018-09-08T18:02:16.673Z,57.80
2018-09-08T18:04:44.673Z,58.90
2018-09-08T18:07:14.830Z,59.10
2018-09-08T18:09:42.789Z,59.40
2018-09-08T18:12:10.824Z,60.70
2018-09-08T18:14:38.897Z,60.20
2018-09-08T18:17:06.919Z,61.10
2018-09-08T18:19:35.114Z,62.00
2018-09-08T18:22:03.097Z,62.10
2018-09-08T18:24:31.070Z,63.40
2018-09-08T18:26:59.041Z,64.00
2018-09-08T18:29:26.950Z,63.30
2018-09-08T18:31:54.907Z,64.90
2018-09-08T18:34:22.905Z,65.10
2018-09-08T18:36:50.917Z,65.60
2018-09-08T18:39:18.881Z,67.80
2018-09-08T18:41:46.819Z,68.20
2018-09-08T18:44:14.760Z,69.70
2018-09-08T18:46:42.729Z,70.50
2018-09-08T18:49:10.647Z,70.70
2018-09-08T18:51:38.600Z,71.90
2018-09-08T18:54:06.693Z,71.30
2018-09-08T18:56:34.688Z,70.60
2018-09-08T18:59:02.608Z,69.80
2018-09-08T19:01:30.735Z,71.90
2018-09-08T19:03:58.640Z,74.60
2018-09-08T19:06:26.518Z,75.80
2018-09-08T19:08:54.497Z,76.00
2018-09-08T19:11:22.469Z,77.10
2018-09-08T19:13:50.537Z,78.20
2018-09-08T19:16:18.501Z,78.20
2018-09-08T19:18:46.403Z,79.10
2018-09-08T19:21:14.323Z,79.20
2018-09-08T19:23:42.334Z,80.20
2018-09-08T19:26:10.273Z,79.70
2018-09-08T19:28:38.217Z,79.70
2018-09-08T19:31:06.165Z,79.10
2018-09-08T19:33:34.088Z,79.30
2018-09-08T19:36:02.369Z,80.50
2018-09-08T19:38:30.529Z,81.50
2018-09-08T19:40:58.515Z,81.80
2018-09-08T19:43:26.441Z,82.70
2018-09-08T19:45:54.418Z,82.90
2018-09-08T19:48:22.363Z,83.80
2018-09-08T19:50:50.297Z,83.90
2018-09-08T19:53:23.762Z,84.40
2018-09-08T19:55:51.770Z,84.20
2018-09-08T19:58:25.333Z,84.70
2018-09-08T20:00:53.295Z,85.10
2018-09-08T20:03:21.279Z,86.50
2018-09-08T20:05:49.189Z,85.80
2018-09-08T20:08:17.523Z,87.00
2018-09-08T20:10:45.650Z,87.20
2018-09-08T20:13:13.721Z,85.90
2018-09-08T20:15:41.608Z,87.70
2018-09-08T20:18:09.607Z,88.40
2018-09-08T20:20:37.573Z,88.10
2018-09-08T20:23:05.557Z,88.30
2018-09-08T20:25:33.551Z,88.90
2018-09-08T20:28:01.441Z,88.70
2018-09-08T20:30:29.387Z,88.60
2018-09-08T20:32:57.341Z,88.80
2018-09-08T20:35:25.318Z,88.10
2018-09-08T20:37:53.257Z,88.50
2018-09-08T20:40:21.205Z,89.20
2018-09-08T20:42:49.194Z,89.10
2018-09-08T20:45:17.117Z,89.20
2018-09-08T20:47:45.093Z,88.20
2018-09-08T20:50:13.079Z,86.20
2018-09-08T20:52:41.002Z,84.10
2018-09-08T20:55:08.936Z,87.60
2018-09-08T20:57:36.883Z,89.00
2018-09-08T21:00:05.010Z,89.40
2018-09-08T21:02:32.928Z,89.10
2018-09-08T21:05:00.878Z,89.80
2018-09-08T21:07:28.769Z,89.80
2018-09-08T21:09:56.731Z,89.10
2018-09-08T21:12:24.705Z,88.30
2018-09-08T21:14:52.649Z,89.00
2018-09-08T21:17:20.575Z,88.90
2018-09-08T21:19:48.510Z,87.60
2018-09-08T21:22:16.422Z,89.50
2018-09-08T21:24:44.343Z,89.50
2018-09-08T21:27:12.293Z,89.50
2018-09-08T21:29:40.222Z,89.90
2018-09-08T21:32:08.211Z,90.10
2018-09-08T21:34:36.147Z,89.40
2018-09-08T21:37:04.133Z,89.20
2018-09-08T21:39:32.090Z,89.90
2018-09-08T21:42:00.085Z,89.10
2018-09-08T21:44:28.081Z,90.20
2018-09-08T21:46:56.008Z,90.00
2018-09-08T21:49:23.951Z,90.00
2018-09-08T21:51:51.956Z,89.60
2018-09-08T21:54:19.977Z,90.20
2018-09-08T21:56:47.869Z,90.00
2018-09-08T21:59:15.815Z,89.70
2018-09-08T22:01:43.813Z,88.90
2018-09-08T22:04:11.729Z,90.10
2018-09-08T22:06:39.675Z,90.20
2018-09-08T22:09:08.617Z,90.20
2018-09-08T22:11:36.664Z,90.10
2018-09-08T22:14:04.662Z,90.10
2018-09-08T22:16:32.615Z,90.30
2018-09-08T22:19:00.600Z,90.40
2018-09-08T22:21:28.568Z,90.50
2018-09-08T22:23:56.536Z,90.50
2018-09-08T22:26:24.489Z,90.80
2018-09-08T22:28:52.449Z,91.00
2018-09-08T22:31:20.403Z,90.90
2018-09-08T22:33:48.294Z,91.20
2018-09-08T22:36:16.242Z,91.50
2018-09-08T22:38:44.207Z,91.70
2018-09-08T22:41:12.181Z,91.80
2018-09-08T22:43:40.105Z,91.90
2018-09-08T22:46:07.973Z,91.90
2018-09-08T22:48:36.041Z,91.70
2018-09-08T22:51:03.913Z,91.60
2018-09-08T22:53:31.856Z,91.60
2018-09-08T22:55:59.741Z,91.60
2018-09-08T22:58:27.670Z,91.50
2018-09-08T23:00:55.668Z,91.80
2018-09-08T23:03:23.605Z,91.80
2018-09-08T23:05:51.589Z,91.80
2018-09-08T23:08:19.481Z,91.80
2018-09-08T23:10:47.429Z,91.80
2018-09-08T23:13:15.323Z,92.00
2018-09-08T23:15:43.292Z,91.60
2018-09-08T23:18:11.233Z,92.10
2018-09-08T23:20:39.138Z,92.10
2018-09-08T23:23:07.117Z,92.10
2018-09-08T23:25:35.026Z,92.20
2018-09-08T23:28:02.996Z,92.20
2018-09-08T23:30:30.925Z,92.00
2018-09-08T23:32:58.898Z,91.90
2018-09-08T23:35:26.876Z,92.20
2018-09-08T23:37:54.964Z,92.30
2018-09-08T23:40:22.947Z,92.50
2018-09-08T23:42:50.949Z,92.60
2018-09-08T23:45:18.949Z,92.40
2018-09-08T23:47:46.856Z,92.60
2018-09-08T23:50:14.851Z,92.70
2018-09-08T23:52:42.741Z,92.30
2018-09-08T23:55:11.132Z,92.20
2018-09-08T23:57:39.184Z,92.10
